Terminal Aerodrome Forecast
Issued by NWS

Home | Current Version | Previous Version | Text Only | Print | Product List | Glossary On
Versions: 1 2 3 4 5 6 7 8 9 10 11 12 13 14 15
224
FTUS41 KBGM 301120
TAFRME
TAF
KRME 301120Z 3012/3112 VRB04KT P6SM OVC150
     FM301900 01003KT P6SM BKN050 OVC070
     FM310500 09006KT P6SM SCT040 OVC100 PROB30 3107/3112 3SM -TSRA
      BR BKN030CB OVC090=

USA.gov is the U.S. government's official web portal to all federal, state and local government web resources and services.